createdAt,value
2023-02-13T00:01:05.772Z,9.70
2023-02-13T00:03:47.925Z,9.60
2023-02-13T00:06:19.846Z,9.60
2023-02-13T00:08:52.831Z,9.70
2023-02-13T00:11:22.618Z,9.60
2023-02-13T00:13:51.178Z,9.60
2023-02-13T00:16:19.300Z,9.60
2023-02-13T00:18:51.826Z,9.60
2023-02-13T00:21:20.609Z,9.60
2023-02-13T00:23:53.005Z,9.60
2023-02-13T00:26:41.602Z,9.60
2023-02-13T00:29:16.526Z,9.60
2023-02-13T00:31:46.544Z,9.60
2023-02-13T00:34:18.748Z,9.60
2023-02-13T00:36:50.416Z,9.60
2023-02-13T00:39:23.102Z,9.60
2023-02-13T00:41:52.363Z,9.60
2023-02-13T00:44:20.750Z,9.60
2023-02-13T00:46:48.924Z,9.60
2023-02-13T00:49:21.208Z,9.50
2023-02-13T00:51:49.566Z,9.60
2023-02-13T00:54:46.093Z,9.50
2023-02-13T00:57:15.247Z,9.50
2023-02-13T00:59:43.319Z,9.60
2023-02-13T01:02:11.497Z,9.50
2023-02-13T01:04:41.720Z,9.50
2023-02-13T01:07:10.039Z,9.60
2023-02-13T01:09:41.143Z,9.50
2023-02-13T01:12:09.495Z,9.60
2023-02-13T01:14:41.426Z,9.60
2023-02-13T01:17:11.272Z,9.60
2023-02-13T01:19:41.437Z,9.60
2023-02-13T01:22:33.445Z,9.50
2023-02-13T01:25:23.450Z,9.50
2023-02-13T01:27:52.346Z,9.50
2023-02-13T01:30:42.250Z,9.50
2023-02-13T01:33:12.828Z,9.50
2023-02-13T01:35:42.963Z,9.50
2023-02-13T01:38:11.407Z,9.50
2023-02-13T01:41:06.477Z,9.50
2023-02-13T01:44:03.119Z,9.50
2023-02-13T01:46:35.064Z,9.50
2023-02-13T01:49:11.062Z,9.50
2023-02-13T01:51:40.741Z,9.50
2023-02-13T01:54:34.578Z,9.50
2023-02-13T01:57:08.256Z,9.50
2023-02-13T01:59:46.612Z,9.50
2023-02-13T02:02:18.761Z,9.50
2023-02-13T02:04:50.096Z,9.50
2023-02-13T02:07:22.630Z,9.50
2023-02-13T02:10:16.273Z,9.50
2023-02-13T02:12:51.732Z,9.50
2023-02-13T02:15:20.693Z,9.50
2023-02-13T02:17:49.163Z,9.50
2023-02-13T02:20:29.898Z,9.50
2023-02-13T02:23:34.369Z,9.50
2023-02-13T02:26:30.237Z,9.50
2023-02-13T02:29:32.966Z,9.50
2023-02-13T02:32:28.310Z,9.50
2023-02-13T02:35:22.920Z,9.50
2023-02-13T02:38:08.111Z,9.50
2023-02-13T02:40:49.208Z,9.50
2023-02-13T02:43:31.866Z,9.50
2023-02-13T02:46:08.481Z,9.50
2023-02-13T02:49:08.210Z,9.50
2023-02-13T02:51:46.158Z,9.50
2023-02-13T02:54:39.428Z,9.50
2023-02-13T02:57:14.054Z,9.50
2023-02-13T03:00:02.612Z,9.50
2023-02-13T03:02:49.741Z,9.50
2023-02-13T03:05:40.984Z,9.50
2023-02-13T03:08:10.510Z,9.50
2023-02-13T03:10:58.044Z,9.40
2023-02-13T03:13:40.650Z,9.50
2023-02-13T03:16:34.311Z,9.50
2023-02-13T03:19:21.666Z,9.50
2023-02-13T03:22:15.182Z,9.40
2023-02-13T03:24:52.192Z,9.40
2023-02-13T03:27:43.472Z,9.40
2023-02-13T03:30:23.094Z,9.40
2023-02-13T03:33:06.409Z,9.40
2023-02-13T03:36:05.043Z,9.40
2023-02-13T03:38:46.641Z,9.40
2023-02-13T03:41:22.444Z,9.40
2023-02-13T03:44:12.559Z,9.40
2023-02-13T03:46:45.579Z,9.40
2023-02-13T03:49:38.818Z,9.40
2023-02-13T03:52:10.701Z,9.40
2023-02-13T03:55:05.272Z,9.40
2023-02-13T03:57:53.295Z,9.40
2023-02-13T04:00:23.418Z,9.40
2023-02-13T04:02:58.665Z,9.50
2023-02-13T04:05:34.725Z,9.40
2023-02-13T04:08:02.911Z,9.40
2023-02-13T04:10:38.598Z,9.40
2023-02-13T04:13:18.492Z,9.40
2023-02-13T04:15:52.007Z,9.40
2023-02-13T04:18:23.766Z,9.40
2023-02-13T04:20:52.613Z,9.40
2023-02-13T04:23:22.971Z,9.40
2023-02-13T04:26:00.489Z,9.40
2023-02-13T04:28:28.740Z,9.40
2023-02-13T04:30:58.148Z,9.30
2023-02-13T04:33:28.569Z,9.40
2023-02-13T04:35:57.375Z,9.40
2023-02-13T04:38:25.421Z,9.40
2023-02-13T04:40:55.401Z,9.40
2023-02-13T04:43:24.032Z,9.40
2023-02-13T04:45:56.531Z,9.40
2023-02-13T04:48:27.531Z,9.40
2023-02-13T04:51:18.780Z,9.40
2023-02-13T04:53:47.692Z,9.40
2023-02-13T04:56:19.927Z,9.40
2023-02-13T04:58:48.974Z,9.40
2023-02-13T05:01:20.679Z,9.40
2023-02-13T05:03:49.546Z,9.40
2023-02-13T05:06:17.911Z,9.30
2023-02-13T05:08:45.906Z,9.40
2023-02-13T05:11:16.761Z,9.40
2023-02-13T05:13:44.752Z,9.30
2023-02-13T05:16:12.992Z,9.30
2023-02-13T05:18:41.111Z,9.30
2023-02-13T05:21:26.668Z,9.30
2023-02-13T05:23:54.924Z,9.30
2023-02-13T05:26:24.457Z,9.30
2023-02-13T05:29:09.762Z,9.30
2023-02-13T05:31:38.225Z,9.30
2023-02-13T05:34:06.291Z,9.30
2023-02-13T05:36:34.345Z,9.30
2023-02-13T05:39:02.648Z,9.30
2023-02-13T05:41:31.978Z,9.30
2023-02-13T05:44:00.270Z,9.30
2023-02-13T05:46:28.727Z,9.40
2023-02-13T05:48:56.718Z,9.30
2023-02-13T05:51:25.443Z,9.30
2023-02-13T05:53:53.465Z,9.40
2023-02-13T05:56:21.736Z,9.30
2023-02-13T05:58:55.274Z,9.30
2023-02-13T06:01:24.816Z,9.30
2023-02-13T06:03:52.991Z,9.30
2023-02-13T06:06:21.333Z,9.30
2023-02-13T06:08:49.307Z,9.40
2023-02-13T06:11:17.520Z,9.30
2023-02-13T06:13:45.602Z,9.30
2023-02-13T06:16:15.312Z,9.30
2023-02-13T06:18:43.502Z,9.30
2023-02-13T06:21:12.204Z,9.30
2023-02-13T06:23:40.532Z,9.30
2023-02-13T06:26:10.354Z,9.30
2023-02-13T06:28:38.473Z,9.30
2023-02-13T06:31:06.740Z,9.30
2023-02-13T06:33:36.506Z,9.20
2023-02-13T06:36:04.996Z,9.30
2023-02-13T06:38:33.145Z,9.30
2023-02-13T06:41:02.454Z,9.30
2023-02-13T06:43:30.435Z,9.30
2023-02-13T06:45:58.666Z,9.30
2023-02-13T06:48:27.222Z,9.30
2023-02-13T06:50:57.781Z,9.30
2023-02-13T06:53:26.160Z,9.30
2023-02-13T06:55:54.453Z,9.30
2023-02-13T06:58:23.427Z,9.30
2023-02-13T07:00:52.520Z,9.30
2023-02-13T07:03:20.893Z,9.30
2023-02-13T07:05:52.209Z,9.30
2023-02-13T07:08:21.683Z,9.30
2023-02-13T07:10:50.165Z,9.30
2023-02-13T07:13:18.321Z,9.30
2023-02-13T07:15:47.041Z,9.30
2023-02-13T07:18:18.494Z,9.40
2023-02-13T07:20:47.097Z,9.30
2023-02-13T07:23:16.056Z,9.40
2023-02-13T07:25:45.551Z,9.40
2023-02-13T07:28:13.838Z,9.40
2023-02-13T07:30:42.248Z,9.40
2023-02-13T07:33:13.497Z,9.40
2023-02-13T07:35:47.044Z,9.40
2023-02-13T07:38:15.086Z,9.40
2023-02-13T07:40:43.444Z,9.50
2023-02-13T07:43:14.793Z,9.50
2023-02-13T07:45:42.982Z,9.50
2023-02-13T07:48:10.990Z,9.60
2023-02-13T07:50:39.000Z,9.60
2023-02-13T07:53:07.108Z,9.60
2023-02-13T07:55:35.508Z,9.60
2023-02-13T07:58:03.603Z,9.60
2023-02-13T08:00:33.415Z,9.60
2023-02-13T08:03:02.230Z,9.70
2023-02-13T08:05:34.824Z,9.70
2023-02-13T08:08:03.054Z,9.70
2023-02-13T08:10:48.894Z,9.70
2023-02-13T08:13:17.909Z,9.70
2023-02-13T08:15:47.467Z,9.70
2023-02-13T08:18:16.660Z,9.70
2023-02-13T08:20:46.066Z,9.70
2023-02-13T08:23:14.302Z,9.80
2023-02-13T08:25:42.875Z,9.80
2023-02-13T08:28:11.262Z,9.80
2023-02-13T08:30:39.694Z,9.80
2023-02-13T08:33:09.167Z,9.90
2023-02-13T08:35:37.261Z,9.90
2023-02-13T08:38:06.129Z,9.90
2023-02-13T08:40:34.552Z,9.90
2023-02-13T08:43:04.783Z,10.00
2023-02-13T08:45:34.624Z,10.00
2023-02-13T08:48:04.138Z,10.10
2023-02-13T08:50:35.135Z,10.10
2023-02-13T08:53:04.329Z,10.20
2023-02-13T08:55:32.684Z,10.10
2023-02-13T08:58:03.346Z,10.20
2023-02-13T09:00:31.721Z,10.20
2023-02-13T09:03:02.214Z,10.30
2023-02-13T09:05:31.900Z,10.30
2023-02-13T09:08:04.039Z,10.30
2023-02-13T09:10:32.833Z,10.40
2023-02-13T09:13:02.031Z,10.40
2023-02-13T09:15:30.112Z,10.30
2023-02-13T09:17:58.890Z,10.30
2023-02-13T09:20:27.496Z,10.40
2023-02-13T09:22:57.017Z,10.30
2023-02-13T09:25:26.656Z,10.30
2023-02-13T09:27:54.768Z,10.30
2023-02-13T09:30:26.022Z,10.30
2023-02-13T09:32:55.588Z,10.30
2023-02-13T09:35:24.762Z,10.30
2023-02-13T09:37:53.003Z,10.30
2023-02-13T09:40:26.681Z,10.20
2023-02-13T09:43:08.865Z,10.20
2023-02-13T09:45:37.801Z,10.20
2023-02-13T09:48:07.229Z,10.20
2023-02-13T09:50:36.512Z,10.20
2023-02-13T09:53:06.429Z,10.20
2023-02-13T09:55:47.468Z,10.10
2023-02-13T09:58:27.214Z,10.20
2023-02-13T10:00:59.068Z,10.00
2023-02-13T10:03:32.628Z,10.10
2023-02-13T10:06:09.170Z,10.20
2023-02-13T10:09:00.552Z,10.20
2023-02-13T10:11:49.608Z,10.10
2023-02-13T10:14:24.023Z,10.20
2023-02-13T10:16:56.735Z,10.20
2023-02-13T10:19:34.212Z,10.10
2023-02-13T10:22:08.579Z,10.20
2023-02-13T10:24:41.227Z,10.20
2023-02-13T10:27:21.548Z,10.30
2023-02-13T10:30:06.704Z,10.30
2023-02-13T10:32:44.474Z,10.40
2023-02-13T10:35:23.487Z,10.40
2023-02-13T10:37:55.523Z,10.40
2023-02-13T10:40:32.137Z,10.40
2023-02-13T10:43:09.300Z,10.40
2023-02-13T10:45:57.845Z,10.40
2023-02-13T10:48:43.005Z,10.40
2023-02-13T10:51:18.557Z,10.50
2023-02-13T10:53:58.751Z,10.50
2023-02-13T10:56:30.593Z,10.40
2023-02-13T10:59:27.918Z,10.40
2023-02-13T11:02:00.479Z,10.50
2023-02-13T11:04:30.494Z,10.50
2023-02-13T11:07:01.934Z,10.50
2023-02-13T11:09:34.367Z,10.60
2023-02-13T11:12:25.075Z,10.60
2023-02-13T11:14:55.816Z,10.60
2023-02-13T11:17:26.366Z,10.60
2023-02-13T11:19:57.158Z,10.60
2023-02-13T11:22:33.267Z,10.70
2023-02-13T11:25:04.421Z,10.60
2023-02-13T11:27:35.570Z,10.60
2023-02-13T11:30:25.801Z,10.70
2023-02-13T11:33:01.175Z,10.70
2023-02-13T11:35:32.491Z,10.80
2023-02-13T11:38:15.797Z,10.80
2023-02-13T11:40:47.125Z,10.80
2023-02-13T11:43:25.214Z,10.80
2023-02-13T11:46:07.359Z,10.80
2023-02-13T11:48:37.359Z,10.90
2023-02-13T11:51:05.821Z,10.90
2023-02-13T11:53:39.411Z,11.00
2023-02-13T11:56:12.260Z,11.00
2023-02-13T11:58:41.169Z,11.10
2023-02-13T12:01:23.864Z,11.10
2023-02-13T12:04:06.604Z,11.20
2023-02-13T12:06:39.998Z,11.20
2023-02-13T12:09:15.933Z,11.20
2023-02-13T12:11:47.315Z,11.20
2023-02-13T12:14:20.720Z,11.10
2023-02-13T12:16:51.997Z,11.00
2023-02-13T12:19:27.532Z,11.10
2023-02-13T12:22:15.372Z,11.10
2023-02-13T12:25:12.379Z,11.20
2023-02-13T12:27:48.075Z,11.20
2023-02-13T12:30:49.205Z,11.30
2023-02-13T12:33:33.874Z,11.30
2023-02-13T12:36:11.399Z,11.40
2023-02-13T12:38:51.583Z,11.40
2023-02-13T12:41:22.555Z,11.40
2023-02-13T12:44:35.205Z,11.40
2023-02-13T12:47:16.479Z,11.30
2023-02-13T12:50:21.169Z,11.40
2023-02-13T12:53:05.011Z,11.50
2023-02-13T12:56:00.212Z,11.50
2023-02-13T12:58:44.179Z,11.50
2023-02-13T13:01:26.432Z,11.60
2023-02-13T13:04:08.646Z,11.60
2023-02-13T13:06:58.906Z,11.50
2023-02-13T13:09:42.631Z,11.60
2023-02-13T13:12:19.135Z,11.60
2023-02-13T13:14:55.553Z,11.70
2023-02-13T13:17:35.381Z,11.70
2023-02-13T13:20:23.534Z,11.70
2023-02-13T13:22:57.104Z,11.70
2023-02-13T13:25:32.225Z,11.80
2023-02-13T13:28:05.946Z,11.80
2023-02-13T13:30:38.404Z,11.90
2023-02-13T13:33:12.433Z,11.90
2023-02-13T13:35:44.081Z,11.90
2023-02-13T13:38:37.187Z,11.90
2023-02-13T13:41:16.217Z,11.90
2023-02-13T13:44:09.327Z,12.00
2023-02-13T13:46:46.850Z,12.00
2023-02-13T13:49:25.758Z,12.00
2023-02-13T13:51:53.928Z,12.00
2023-02-13T13:54:35.904Z,12.00
2023-02-13T13:57:12.885Z,12.10
2023-02-13T14:00:01.062Z,12.10
2023-02-13T14:02:42.505Z,12.10
2023-02-13T14:05:31.820Z,12.10
2023-02-13T14:08:02.392Z,12.10
2023-02-13T14:11:06.785Z,12.10
2023-02-13T14:13:38.432Z,12.10
2023-02-13T14:16:10.611Z,12.10
2023-02-13T14:18:39.957Z,12.10
2023-02-13T14:21:08.156Z,12.10
2023-02-13T14:23:53.603Z,12.10
2023-02-13T14:26:32.520Z,12.10
2023-02-13T14:29:38.152Z,12.00
2023-02-13T14:32:27.874Z,12.00
2023-02-13T14:35:00.332Z,12.00
2023-02-13T14:37:36.794Z,12.00
2023-02-13T14:40:15.597Z,12.00
2023-02-13T14:42:46.418Z,12.00
2023-02-13T14:45:19.742Z,12.00
2023-02-13T14:47:53.400Z,11.90
2023-02-13T14:50:25.950Z,11.90
2023-02-13T14:52:55.755Z,11.90
2023-02-13T14:55:35.443Z,11.90
2023-02-13T14:58:08.970Z,11.90
2023-02-13T15:00:45.590Z,11.90
2023-02-13T15:03:26.114Z,11.90
2023-02-13T15:05:57.962Z,11.80
2023-02-13T15:08:29.071Z,11.80
2023-02-13T15:10:58.734Z,11.80
2023-02-13T15:13:33.486Z,11.90
2023-02-13T15:16:05.436Z,11.90
2023-02-13T15:18:40.372Z,11.90
2023-02-13T15:21:15.255Z,11.90
2023-02-13T15:23:44.279Z,11.90
2023-02-13T15:26:22.944Z,11.90
2023-02-13T15:29:01.343Z,11.90
2023-02-13T15:31:34.872Z,11.80
2023-02-13T15:34:03.342Z,11.80
2023-02-13T15:36:40.602Z,11.80
2023-02-13T15:39:18.659Z,11.80
2023-02-13T15:41:50.318Z,11.80
2023-02-13T15:44:21.044Z,11.80
2023-02-13T15:46:52.721Z,11.70
2023-02-13T15:49:23.645Z,11.80
2023-02-13T15:51:52.449Z,11.70
2023-02-13T15:54:26.880Z,11.70
2023-02-13T15:56:58.384Z,11.70
2023-02-13T15:59:31.983Z,11.70
2023-02-13T16:02:03.366Z,11.70
2023-02-13T16:04:32.216Z,11.70
2023-02-13T16:07:01.703Z,11.60
2023-02-13T16:09:33.675Z,11.60
2023-02-13T16:12:04.643Z,11.60
2023-02-13T16:14:35.545Z,11.60
2023-02-13T16:17:07.190Z,11.60
2023-02-13T16:19:45.452Z,11.60
2023-02-13T16:22:34.040Z,11.60
2023-02-13T16:25:22.858Z,11.50
2023-02-13T16:27:52.960Z,11.50
2023-02-13T16:30:32.056Z,11.40
2023-02-13T16:33:25.479Z,11.40
2023-02-13T16:36:03.443Z,11.30
2023-02-13T16:38:35.241Z,11.30
2023-02-13T16:41:06.022Z,11.20
2023-02-13T16:43:47.477Z,11.20
2023-02-13T16:46:25.923Z,11.20
2023-02-13T16:49:27.307Z,11.20
2023-02-13T16:52:01.626Z,11.10
2023-02-13T16:54:38.374Z,11.10
2023-02-13T16:57:18.907Z,11.00
2023-02-13T17:00:00.834Z,10.90
2023-02-13T17:02:30.023Z,10.90
2023-02-13T17:05:15.866Z,10.80
2023-02-13T17:07:47.175Z,10.80
2023-02-13T17:10:21.724Z,10.70
2023-02-13T17:12:51.800Z,10.70
2023-02-13T17:15:22.719Z,10.70
2023-02-13T17:17:51.943Z,10.70
2023-02-13T17:20:24.596Z,10.60
2023-02-13T17:25:55.117Z,10.50
2023-02-13T17:28:25.259Z,10.40
2023-02-13T17:30:56.354Z,10.40
2023-02-13T17:33:27.776Z,10.40
2023-02-13T17:35:58.381Z,10.30
2023-02-13T17:38:26.955Z,10.30
2023-02-13T17:40:55.409Z,10.30
2023-02-13T17:43:23.568Z,10.20
2023-02-13T17:46:21.788Z,10.20
2023-02-13T17:48:49.856Z,10.10
2023-02-13T17:51:19.580Z,10.10
2023-02-13T17:53:48.356Z,10.10
2023-02-13T17:56:16.635Z,10.10
2023-02-13T17:58:44.905Z,10.00
2023-02-13T18:01:13.382Z,10.00
2023-02-13T18:03:41.868Z,10.00
2023-02-13T18:06:16.036Z,10.00
2023-02-13T18:08:45.636Z,9.90
2023-02-13T18:11:14.052Z,9.80
2023-02-13T18:13:51.132Z,9.80
2023-02-13T18:16:22.773Z,9.80
2023-02-13T18:18:51.141Z,9.80
2023-02-13T18:21:22.710Z,9.80
2023-02-13T18:23:58.372Z,9.70
2023-02-13T18:26:27.952Z,9.70
2023-02-13T18:28:56.621Z,9.70
2023-02-13T18:31:25.252Z,9.70
2023-02-13T18:33:53.596Z,9.60
2023-02-13T18:36:22.312Z,9.60
2023-02-13T18:38:52.718Z,9.60
2023-02-13T18:41:26.305Z,9.60
2023-02-13T18:43:57.394Z,9.60
2023-02-13T18:46:36.399Z,9.50
2023-02-13T18:49:05.224Z,9.50
2023-02-13T18:51:34.242Z,9.50
2023-02-13T18:54:02.464Z,9.50
2023-02-13T18:56:32.135Z,9.40
2023-02-13T18:59:00.228Z,9.40
2023-02-13T19:01:28.962Z,9.40
2023-02-13T19:03:58.501Z,9.40
2023-02-13T19:06:29.771Z,9.30
2023-02-13T19:08:58.265Z,9.30
2023-02-13T19:11:30.928Z,9.30
2023-02-13T19:14:04.736Z,9.30
2023-02-13T19:16:36.386Z,9.20
2023-02-13T19:19:08.420Z,9.20
2023-02-13T19:21:43.876Z,9.20
2023-02-13T19:24:15.482Z,9.10
2023-02-13T19:26:45.909Z,9.10
2023-02-13T19:29:17.926Z,9.10
2023-02-13T19:31:47.863Z,9.10
2023-02-13T19:34:17.538Z,9.10
2023-02-13T19:36:48.945Z,9.00
2023-02-13T19:39:18.745Z,9.00
2023-02-13T19:41:49.570Z,9.00
2023-02-13T19:44:22.008Z,9.00
2023-02-13T19:47:13.541Z,8.90
2023-02-13T19:49:44.521Z,8.90
2023-02-13T19:52:15.215Z,8.90
2023-02-13T19:54:44.133Z,8.80
2023-02-13T19:57:36.459Z,8.90
2023-02-13T20:00:26.936Z,8.80
2023-02-13T20:03:04.039Z,8.80
2023-02-13T20:05:39.007Z,8.80
2023-02-13T20:08:08.488Z,8.70
2023-02-13T20:10:39.834Z,8.70
2023-02-13T20:13:08.004Z,8.70
2023-02-13T20:15:43.479Z,8.70
2023-02-13T20:18:12.197Z,8.60
2023-02-13T20:20:44.475Z,8.60
2023-02-13T20:23:12.726Z,8.60
2023-02-13T20:25:41.142Z,8.60
2023-02-13T20:28:11.472Z,8.60
2023-02-13T20:30:43.414Z,8.60
2023-02-13T20:33:12.197Z,8.50
2023-02-13T20:35:41.534Z,8.50
2023-02-13T20:38:09.943Z,8.50
2023-02-13T20:40:38.584Z,8.50
2023-02-13T20:43:09.090Z,8.40
2023-02-13T20:45:38.241Z,8.40
2023-02-13T20:48:11.709Z,8.40
2023-02-13T20:50:41.249Z,8.40
2023-02-13T20:53:10.429Z,8.40
2023-02-13T20:55:39.323Z,8.40
2023-02-13T20:58:08.785Z,8.30
2023-02-13T21:00:37.155Z,8.30
2023-02-13T21:03:06.976Z,8.30
2023-02-13T21:05:44.549Z,8.30
2023-02-13T21:08:12.828Z,8.30
2023-02-13T21:10:42.923Z,8.30
2023-02-13T21:13:17.023Z,8.20
2023-02-13T21:15:49.304Z,8.20
2023-02-13T21:18:40.914Z,8.30
2023-02-13T21:21:33.332Z,8.20
2023-02-13T21:24:03.443Z,8.20
2023-02-13T21:26:33.210Z,8.20
2023-02-13T21:29:04.227Z,8.10
2023-02-13T21:31:36.898Z,8.10
2023-02-13T21:34:08.829Z,8.10
2023-02-13T21:36:44.871Z,8.00
2023-02-13T21:39:15.084Z,8.00
2023-02-13T21:41:44.739Z,8.00
2023-02-13T21:44:16.742Z,8.00
2023-02-13T21:46:49.095Z,8.00
2023-02-13T21:49:18.871Z,8.00
2023-02-13T21:51:55.652Z,7.90
2023-02-13T21:54:24.413Z,8.00
2023-02-13T21:56:53.284Z,7.90
2023-02-13T21:59:22.211Z,7.90
2023-02-13T22:01:55.282Z,7.90
2023-02-13T22:04:24.327Z,7.90
2023-02-13T22:07:00.197Z,7.80
2023-02-13T22:09:29.002Z,7.80
2023-02-13T22:11:59.756Z,7.80
2023-02-13T22:14:28.188Z,7.80
2023-02-13T22:16:59.215Z,7.80
2023-02-13T22:19:27.376Z,7.70
2023-02-13T22:22:03.731Z,7.70
2023-02-13T22:24:33.172Z,7.70
2023-02-13T22:27:03.274Z,7.70
2023-02-13T22:29:31.844Z,7.60
2023-02-13T22:32:03.453Z,7.60
2023-02-13T22:34:31.706Z,7.60
2023-02-13T22:37:02.222Z,7.60
2023-02-13T22:39:31.297Z,7.60
2023-02-13T22:42:00.842Z,7.50
2023-02-13T22:44:33.486Z,7.50
2023-02-13T22:47:01.718Z,7.50
2023-02-13T22:49:31.106Z,7.50
2023-02-13T22:52:02.531Z,7.50
2023-02-13T22:54:31.147Z,7.40
2023-02-13T22:57:00.372Z,7.50
2023-02-13T22:59:40.186Z,7.40
2023-02-13T23:02:09.144Z,7.40
2023-02-13T23:04:39.990Z,7.40
2023-02-13T23:07:11.712Z,7.30
2023-02-13T23:09:40.141Z,7.30
2023-02-13T23:12:22.949Z,7.30
2023-02-13T23:14:51.197Z,7.30
2023-02-13T23:17:36.598Z,7.30
2023-02-13T23:20:05.857Z,7.30
2023-02-13T23:22:56.250Z,7.20
2023-02-13T23:25:28.851Z,7.30
2023-02-13T23:27:58.508Z,7.20
2023-02-13T23:30:28.927Z,7.20
2023-02-13T23:32:58.168Z,7.20
2023-02-13T23:35:27.567Z,7.20
2023-02-13T23:38:00.933Z,7.20
2023-02-13T23:40:29.470Z,7.20
2023-02-13T23:43:00.520Z,7.10
2023-02-13T23:45:29.677Z,7.10
2023-02-13T23:47:58.091Z,7.10
2023-02-13T23:50:26.344Z,7.10
2023-02-13T23:52:54.559Z,7.10
2023-02-13T23:55:27.993Z,7.10
2023-02-13T23:57:56.660Z,7.10
